Startpagina
METAR-TAF:

METAR-TAF

Vliegvelden :

Productieplatform

Awg-1, Nederland

breedte: 53-29-30N, lengte: 5-56-30E, hoogte: 33 m

Actueel weer

Dit bericht is 30 minuten geleden gemaakt, om 06:55 UTC
Wind 19 kt uit het zuidzuidwesten, variërend tussen het zuiden en het westzuidwesten
Temperatuur 12°C
Vochtigheid 94%
Druk 1006 hPa
Zicht: 6000 m
Weinig wolken op 2200 ft
Gebroken wolken op 4800 ft

METAR: EHMA 160655Z AUTO 20019KT 180V240 6000 FEW022 BKN048 12/11 Q1006 W///H///

Tijdstip: 09:25 (07:25 UTC)


TAF: ontbreekt

Waarnemingen en weersverwachtingen van meer dan 4000 vliegvelden (METAR en TAF).

De beschikbare stations zijn de gele en rode punten op de kaart.

Ga met uw muis naar het station om de naam te zien.

Klik dan om waarnemingen en weersverwachtingen te zien.

kaart wijzigen: klik op de groene knoppen met een zwart kruis om in te zoomen, op de groene knop met een streepje om uit te zoomen of op de groene pijlen voor aangrenzende kaarten.


METAR-TAF: